CheckWX is a tool to help pilots better visualize weather data.  It is not intended as a substitute for an official pre-flight weather briefing.

07:07:27 UTC

OSDI METAR
Damascus International Airport
Damascus, Syria
Current

7 mins ago

OSDI 180700Z 05003KT CAVOK 10/M01 Q1025
Observed
Nov-18 @ 07:00 UTC
Wind
  • 050° at 3 KTS
Visibility
10,000+ meters
Flight Rules
VFR
Cloud Levels
  • Clear skies
Temperature
10°C / 50°F
Dewpoint
-1°C / 30°F
Humidity
47%
Altimeter
30.27" Hg
Pressure
1024.92 hPa
Previous

1 hour ago

OSDI 180600Z 02003KT CAVOK 07/00 Q1025
Observed
Nov-18 @ 06:00 UTC
Wind
  • 020° at 3 KTS
Visibility
10,000+ meters
Flight Rules
VFR
Cloud Levels
  • Clear skies
Temperature
C / 45°F
Dewpoint
C / 32°F
Humidity
61%
Altimeter
30.27" Hg
Pressure
1024.92 hPa
Previous

2 hours ago

OSDI 180500Z 28002KT CAVOK 02/M02 Q1024
Observed
Nov-18 @ 05:00 UTC
Wind
  • 280° at 2 KTS
Visibility
10,000+ meters
Flight Rules
VFR
Cloud Levels
  • Clear skies
Temperature
C / 36°F
Dewpoint
-2°C / 28°F
Humidity
75%
Altimeter
30.24" Hg
Pressure
1023.92 hPa